sensor_id;sensor_type;location;lat;lon;timestamp;P1;durP1;ratioP1;P2;durP2;ratioP2
42414;SDS011;28058;46.344;17.786;2023-08-21T00:04:05;16.45;;;14.70;;
42414;SDS011;28058;46.344;17.786;2023-08-21T00:55:38;18.05;;;16.27;;
42414;SDS011;28058;46.344;17.786;2023-08-21T00:58:05;18.80;;;16.90;;
42414;SDS011;28058;46.344;17.786;2023-08-21T01:28:26;21.40;;;17.00;;
42414;SDS011;28058;46.344;17.786;2023-08-21T02:44:28;21.20;;;19.10;;
42414;SDS011;28058;46.344;17.786;2023-08-21T03:26:17;21.40;;;19.30;;
42414;SDS011;28058;46.344;17.786;2023-08-21T04:27:30;20.17;;;17.55;;
42414;SDS011;28058;46.344;17.786;2023-08-21T04:44:39;14.20;;;12.75;;
42414;SDS011;28058;46.344;17.786;2023-08-21T04:47:21;16.17;;;12.77;;
42414;SDS011;28058;46.344;17.786;2023-08-21T05:02:06;15.95;;;14.05;;
42414;SDS011;28058;46.344;17.786;2023-08-21T05:04:35;16.48;;;14.07;;
42414;SDS011;28058;46.344;17.786;2023-08-21T05:07:03;14.40;;;13.00;;
42414;SDS011;28058;46.344;17.786;2023-08-21T05:09:31;15.32;;;13.93;;
42414;SDS011;28058;46.344;17.786;2023-08-21T05:11:58;17.55;;;15.77;;
42414;SDS011;28058;46.344;17.786;2023-08-21T05:14:26;18.58;;;16.45;;
42414;SDS011;28058;46.344;17.786;2023-08-21T05:16:53;18.30;;;16.42;;
42414;SDS011;28058;46.344;17.786;2023-08-21T05:19:20;18.08;;;16.25;;
42414;SDS011;28058;46.344;17.786;2023-08-21T05:21:47;17.42;;;15.50;;
42414;SDS011;28058;46.344;17.786;2023-08-21T05:24:14;17.33;;;15.73;;
42414;SDS011;28058;46.344;17.786;2023-08-21T05:26:41;17.15;;;15.52;;
42414;SDS011;28058;46.344;17.786;2023-08-21T05:29:08;18.27;;;16.48;;
42414;SDS011;28058;46.344;17.786;2023-08-21T05:31:35;18.42;;;16.40;;
42414;SDS011;28058;46.344;17.786;2023-08-21T05:34:02;18.70;;;16.77;;
42414;SDS011;28058;46.344;17.786;2023-08-21T05:36:30;17.60;;;15.95;;
42414;SDS011;28058;46.344;17.786;2023-08-21T05:38:57;18.35;;;16.67;;
42414;SDS011;28058;46.344;17.786;2023-08-21T05:41:24;18.77;;;16.88;;
42414;SDS011;28058;46.344;17.786;2023-08-21T05:43:51;17.75;;;16.05;;
42414;SDS011;28058;46.344;17.786;2023-08-21T05:46:18;18.20;;;16.42;;
42414;SDS011;28058;46.344;17.786;2023-08-21T05:48:45;18.17;;;16.45;;
42414;SDS011;28058;46.344;17.786;2023-08-21T05:51:12;18.50;;;16.70;;
42414;SDS011;28058;46.344;17.786;2023-08-21T05:53:39;21.33;;;18.27;;
42414;SDS011;28058;46.344;17.786;2023-08-21T05:56:06;20.42;;;17.67;;
42414;SDS011;28058;46.344;17.786;2023-08-21T05:58:33;20.00;;;17.90;;
42414;SDS011;28058;46.344;17.786;2023-08-21T06:23:05;15.32;;;13.90;;
42414;SDS011;28058;46.344;17.786;2023-08-21T06:27:59;13.63;;;12.30;;
42414;SDS011;28058;46.344;17.786;2023-08-21T06:30:26;14.48;;;13.07;;
42414;SDS011;28058;46.344;17.786;2023-08-21T06:32:54;15.20;;;13.70;;
42414;SDS011;28058;46.344;17.786;2023-08-21T06:35:22;12.95;;;11.80;;
42414;SDS011;28058;46.344;17.786;2023-08-21T06:37:49;14.48;;;12.90;;
42414;SDS011;28058;46.344;17.786;2023-08-21T06:40:16;14.30;;;13.07;;
42414;SDS011;28058;46.344;17.786;2023-08-21T06:42:44;13.88;;;12.48;;
42414;SDS011;28058;46.344;17.786;2023-08-21T06:45:11;13.60;;;12.27;;
42414;SDS011;28058;46.344;17.786;2023-08-21T07:58:40;14.35;;;10.30;;
42414;SDS011;28058;46.344;17.786;2023-08-21T08:01:07;11.63;;;10.55;;
42414;SDS011;28058;46.344;17.786;2023-08-21T08:03:34;11.70;;;10.50;;
42414;SDS011;28058;46.344;17.786;2023-08-21T08:06:01;11.00;;;10.00;;
42414;SDS011;28058;46.344;17.786;2023-08-21T08:08:28;11.23;;;10.10;;
42414;SDS011;28058;46.344;17.786;2023-08-21T08:10:59;12.32;;;10.18;;
42414;SDS011;28058;46.344;17.786;2023-08-21T08:13:28;11.95;;;10.23;;
42414;SDS011;28058;46.344;17.786;2023-08-21T08:15:55;11.13;;;10.07;;
42414;SDS011;28058;46.344;17.786;2023-08-21T08:18:22;12.40;;;10.15;;
42414;SDS011;28058;46.344;17.786;2023-08-21T08:20:48;11.07;;;10.18;;
42414;SDS011;28058;46.344;17.786;2023-08-21T08:23:15;10.98;;;9.98;;
42414;SDS011;28058;46.344;17.786;2023-08-21T08:25:45;11.10;;;10.02;;
42414;SDS011;28058;46.344;17.786;2023-08-21T08:28:12;11.07;;;10.00;;
42414;SDS011;28058;46.344;17.786;2023-08-21T08:30:39;14.00;;;10.68;;
42414;SDS011;28058;46.344;17.786;2023-08-21T08:33:06;10.95;;;9.88;;
42414;SDS011;28058;46.344;17.786;2023-08-21T08:35:33;11.88;;;10.55;;
42414;SDS011;28058;46.344;17.786;2023-08-21T08:38:00;10.88;;;9.88;;
42414;SDS011;28058;46.344;17.786;2023-08-21T08:40:27;11.38;;;10.18;;
42414;SDS011;28058;46.344;17.786;2023-08-21T08:42:54;11.32;;;10.27;;
42414;SDS011;28058;46.344;17.786;2023-08-21T08:45:29;10.85;;;9.77;;
42414;SDS011;28058;46.344;17.786;2023-08-21T08:48:00;11.68;;;9.80;;
42414;SDS011;28058;46.344;17.786;2023-08-21T08:50:31;13.57;;;9.48;;
42414;SDS011;28058;46.344;17.786;2023-08-21T14:00:53;7.68;;;6.90;;
42414;SDS011;28058;46.344;17.786;2023-08-21T14:03:20;7.80;;;6.90;;
42414;SDS011;28058;46.344;17.786;2023-08-21T14:05:47;10.10;;;6.90;;
42414;SDS011;28058;46.344;17.786;2023-08-21T14:08:14;8.25;;;6.38;;
42414;SDS011;28058;46.344;17.786;2023-08-21T14:10:41;7.85;;;6.47;;
42414;SDS011;28058;46.344;17.786;2023-08-21T14:13:08;7.35;;;6.57;;
42414;SDS011;28058;46.344;17.786;2023-08-21T14:15:35;7.05;;;6.35;;
42414;SDS011;28058;46.344;17.786;2023-08-21T14:18:02;8.15;;;7.32;;
42414;SDS011;28058;46.344;17.786;2023-08-21T14:20:29;8.48;;;6.47;;
42414;SDS011;28058;46.344;17.786;2023-08-21T14:22:56;7.53;;;6.57;;
42414;SDS011;28058;46.344;17.786;2023-08-21T14:25:23;6.78;;;6.03;;
42414;SDS011;28058;46.344;17.786;2023-08-21T14:27:50;7.07;;;6.25;;
42414;SDS011;28058;46.344;17.786;2023-08-21T14:30:17;8.15;;;6.45;;
42414;SDS011;28058;46.344;17.786;2023-08-21T14:49:58;7.63;;;6.30;;
42414;SDS011;28058;46.344;17.786;2023-08-21T14:52:25;7.55;;;6.85;;
42414;SDS011;28058;46.344;17.786;2023-08-21T14:54:53;7.13;;;6.43;;
42414;SDS011;28058;46.344;17.786;2023-08-21T14:57:20;7.15;;;6.45;;
42414;SDS011;28058;46.344;17.786;2023-08-21T14:59:47;8.10;;;6.50;;
42414;SDS011;28058;46.344;17.786;2023-08-21T15:02:14;7.93;;;6.40;;
42414;SDS011;28058;46.344;17.786;2023-08-21T16:28:18;9.77;;;7.32;;
42414;SDS011;28058;46.344;17.786;2023-08-21T16:30:46;7.95;;;6.38;;
42414;SDS011;28058;46.344;17.786;2023-08-21T16:33:13;7.38;;;6.72;;
42414;SDS011;28058;46.344;17.786;2023-08-21T16:50:22;10.13;;;7.35;;
42414;SDS011;28058;46.344;17.786;2023-08-21T16:52:49;10.60;;;7.28;;
42414;SDS011;28058;46.344;17.786;2023-08-21T16:55:16;8.75;;;7.10;;
42414;SDS011;28058;46.344;17.786;2023-08-21T16:57:43;8.20;;;7.07;;
42414;SDS011;28058;46.344;17.786;2023-08-21T17:00:10;9.88;;;7.30;;
42414;SDS011;28058;46.344;17.786;2023-08-21T17:02:38;8.95;;;8.10;;
42414;SDS011;28058;46.344;17.786;2023-08-21T17:05:06;8.07;;;7.28;;
42414;SDS011;28058;46.344;17.786;2023-08-21T17:07:34;9.65;;;7.53;;
42414;SDS011;28058;46.344;17.786;2023-08-21T17:10:06;8.38;;;7.55;;
42414;SDS011;28058;46.344;17.786;2023-08-21T17:12:34;8.80;;;7.88;;
42414;SDS011;28058;46.344;17.786;2023-08-21T17:15:03;9.02;;;7.25;;
42414;SDS011;28058;46.344;17.786;2023-08-21T17:17:31;9.07;;;7.50;;
42414;SDS011;28058;46.344;17.786;2023-08-21T17:19:58;8.00;;;7.22;;
42414;SDS011;28058;46.344;17.786;2023-08-21T17:22:25;8.57;;;7.65;;
42414;SDS011;28058;46.344;17.786;2023-08-21T17:24:52;8.57;;;7.68;;
42414;SDS011;28058;46.344;17.786;2023-08-21T17:27:39;8.82;;;7.22;;
42414;SDS011;28058;46.344;17.786;2023-08-21T17:30:07;8.30;;;7.50;;
42414;SDS011;28058;46.344;17.786;2023-08-21T17:32:34;9.40;;;8.15;;
42414;SDS011;28058;46.344;17.786;2023-08-21T17:35:01;8.77;;;7.97;;
42414;SDS011;28058;46.344;17.786;2023-08-21T17:37:29;8.98;;;8.07;;
42414;SDS011;28058;46.344;17.786;2023-08-21T17:39:56;11.10;;;8.13;;
42414;SDS011;28058;46.344;17.786;2023-08-21T17:42:23;9.40;;;8.50;;
42414;SDS011;28058;46.344;17.786;2023-08-21T17:44:50;14.20;;;8.75;;
42414;SDS011;28058;46.344;17.786;2023-08-21T17:47:17;9.50;;;7.53;;
42414;SDS011;28058;46.344;17.786;2023-08-21T17:49:44;10.45;;;8.82;;
42414;SDS011;28058;46.344;17.786;2023-08-21T17:52:12;9.55;;;8.10;;
42414;SDS011;28058;46.344;17.786;2023-08-21T17:54:39;10.43;;;8.85;;
42414;SDS011;28058;46.344;17.786;2023-08-21T17:57:06;11.30;;;8.65;;
42414;SDS011;28058;46.344;17.786;2023-08-21T17:59:33;9.98;;;9.02;;
42414;SDS011;28058;46.344;17.786;2023-08-21T18:02:00;11.93;;;10.07;;
42414;SDS011;28058;46.344;17.786;2023-08-21T18:04:28;10.57;;;8.85;;
42414;SDS011;28058;46.344;17.786;2023-08-21T18:06:55;10.07;;;9.07;;
42414;SDS011;28058;46.344;17.786;2023-08-21T18:09:22;11.32;;;9.40;;
42414;SDS011;28058;46.344;17.786;2023-08-21T18:11:49;10.25;;;9.18;;
42414;SDS011;28058;46.344;17.786;2023-08-21T18:14:16;12.57;;;8.90;;
42414;SDS011;28058;46.344;17.786;2023-08-21T18:16:44;9.68;;;8.73;;
42414;SDS011;28058;46.344;17.786;2023-08-21T18:19:14;10.32;;;8.00;;
42414;SDS011;28058;46.344;17.786;2023-08-21T18:21:41;9.45;;;8.55;;
42414;SDS011;28058;46.344;17.786;2023-08-21T18:24:10;10.55;;;9.20;;
42414;SDS011;28058;46.344;17.786;2023-08-21T18:26:37;11.25;;;10.02;;
42414;SDS011;28058;46.344;17.786;2023-08-21T18:29:07;12.33;;;9.13;;
42414;SDS011;28058;46.344;17.786;2023-08-21T18:31:34;13.23;;;9.73;;
42414;SDS011;28058;46.344;17.786;2023-08-21T18:34:02;10.57;;;9.57;;
42414;SDS011;28058;46.344;17.786;2023-08-21T18:36:29;13.45;;;12.07;;
42414;SDS011;28058;46.344;17.786;2023-08-21T18:39:00;11.77;;;10.55;;
42414;SDS011;28058;46.344;17.786;2023-08-21T18:41:27;12.88;;;10.48;;
42414;SDS011;28058;46.344;17.786;2023-08-21T18:43:54;12.55;;;9.55;;
42414;SDS011;28058;46.344;17.786;2023-08-21T18:46:22;14.20;;;10.02;;
42414;SDS011;28058;46.344;17.786;2023-08-21T18:48:49;11.90;;;10.57;;
42414;SDS011;28058;46.344;17.786;2023-08-21T18:51:16;12.05;;;10.95;;
42414;SDS011;28058;46.344;17.786;2023-08-21T18:53:44;13.15;;;10.23;;
42414;SDS011;28058;46.344;17.786;2023-08-21T18:56:11;11.35;;;9.68;;
42414;SDS011;28058;46.344;17.786;2023-08-21T18:58:39;14.48;;;10.32;;
42414;SDS011;28058;46.344;17.786;2023-08-21T19:01:06;11.82;;;10.05;;
42414;SDS011;28058;46.344;17.786;2023-08-21T19:03:33;11.93;;;10.73;;
42414;SDS011;28058;46.344;17.786;2023-08-21T19:06:00;14.63;;;10.02;;
42414;SDS011;28058;46.344;17.786;2023-08-21T19:08:27;11.40;;;10.20;;
42414;SDS011;28058;46.344;17.786;2023-08-21T19:10:56;12.05;;;9.52;;
42414;SDS011;28058;46.344;17.786;2023-08-21T19:13:25;14.55;;;10.25;;
42414;SDS011;28058;46.344;17.786;2023-08-21T19:15:52;12.90;;;9.85;;
42414;SDS011;28058;46.344;17.786;2023-08-21T19:18:19;14.18;;;10.30;;
42414;SDS011;28058;46.344;17.786;2023-08-21T19:20:46;11.93;;;9.90;;
42414;SDS011;28058;46.344;17.786;2023-08-21T19:23:13;12.65;;;9.93;;
42414;SDS011;28058;46.344;17.786;2023-08-21T19:25:41;12.32;;;11.02;;
42414;SDS011;28058;46.344;17.786;2023-08-21T19:28:08;12.63;;;10.52;;
42414;SDS011;28058;46.344;17.786;2023-08-21T19:30:35;11.93;;;10.73;;
42414;SDS011;28058;46.344;17.786;2023-08-21T19:33:04;12.38;;;10.95;;
42414;SDS011;28058;46.344;17.786;2023-08-21T19:35:33;13.07;;;11.52;;
42414;SDS011;28058;46.344;17.786;2023-08-21T19:38:01;11.50;;;10.35;;
42414;SDS011;28058;46.344;17.786;2023-08-21T19:40:35;12.50;;;11.30;;
42414;SDS011;28058;46.344;17.786;2023-08-21T19:43:04;16.50;;;12.13;;
42414;SDS011;28058;46.344;17.786;2023-08-21T19:45:31;14.02;;;12.40;;
42414;SDS011;28058;46.344;17.786;2023-08-21T19:47:58;14.75;;;12.70;;
42414;SDS011;28058;46.344;17.786;2023-08-21T19:50:25;14.77;;;13.25;;
42414;SDS011;28058;46.344;17.786;2023-08-21T19:52:53;18.40;;;13.75;;
42414;SDS011;28058;46.344;17.786;2023-08-21T19:55:20;17.60;;;13.70;;
42414;SDS011;28058;46.344;17.786;2023-08-21T19:57:48;15.68;;;12.98;;
42414;SDS011;28058;46.344;17.786;2023-08-21T20:00:14;14.55;;;13.05;;
42414;SDS011;28058;46.344;17.786;2023-08-21T20:02:42;21.00;;;16.67;;
42414;SDS011;28058;46.344;17.786;2023-08-21T20:05:09;22.65;;;18.30;;
42414;SDS011;28058;46.344;17.786;2023-08-21T20:07:36;20.52;;;16.60;;
42414;SDS011;28058;46.344;17.786;2023-08-21T20:10:03;22.00;;;16.85;;
42414;SDS011;28058;46.344;17.786;2023-08-21T20:12:31;22.90;;;17.40;;
42414;SDS011;28058;46.344;17.786;2023-08-21T20:14:58;17.95;;;16.05;;
42414;SDS011;28058;46.344;17.786;2023-08-21T20:17:28;18.80;;;14.55;;
42414;SDS011;28058;46.344;17.786;2023-08-21T20:19:55;18.48;;;15.63;;
42414;SDS011;28058;46.344;17.786;2023-08-21T20:22:22;19.45;;;14.90;;
42414;SDS011;28058;46.344;17.786;2023-08-21T20:24:49;15.82;;;14.05;;
42414;SDS011;28058;46.344;17.786;2023-08-21T20:27:16;17.15;;;13.77;;
42414;SDS011;28058;46.344;17.786;2023-08-21T20:29:43;21.85;;;15.02;;
42414;SDS011;28058;46.344;17.786;2023-08-21T20:32:10;19.95;;;15.57;;
42414;SDS011;28058;46.344;17.786;2023-08-21T20:34:37;20.63;;;15.88;;
42414;SDS011;28058;46.344;17.786;2023-08-21T20:37:04;21.92;;;17.88;;
42414;SDS011;28058;46.344;17.786;2023-08-21T20:39:31;37.83;;;25.08;;
42414;SDS011;28058;46.344;17.786;2023-08-21T20:41:59;42.83;;;28.50;;
42414;SDS011;28058;46.344;17.786;2023-08-21T20:44:28;49.78;;;30.65;;
42414;SDS011;28058;46.344;17.786;2023-08-21T20:46:56;43.00;;;29.92;;
42414;SDS011;28058;46.344;17.786;2023-08-21T20:49:23;39.65;;;28.48;;
42414;SDS011;28058;46.344;17.786;2023-08-21T20:51:50;27.75;;;19.92;;
42414;SDS011;28058;46.344;17.786;2023-08-21T20:54:16;26.65;;;20.08;;
42414;SDS011;28058;46.344;17.786;2023-08-21T20:56:43;18.63;;;14.68;;
42414;SDS011;28058;46.344;17.786;2023-08-21T20:59:11;19.17;;;16.58;;
42414;SDS011;28058;46.344;17.786;2023-08-21T21:01:37;22.55;;;16.77;;
42414;SDS011;28058;46.344;17.786;2023-08-21T21:04:04;20.42;;;16.65;;
42414;SDS011;28058;46.344;17.786;2023-08-21T21:06:31;17.40;;;15.55;;
42414;SDS011;28058;46.344;17.786;2023-08-21T21:08:58;17.52;;;15.00;;
42414;SDS011;28058;46.344;17.786;2023-08-21T21:11:25;17.35;;;13.73;;
42414;SDS011;28058;46.344;17.786;2023-08-21T21:13:52;14.52;;;13.02;;
42414;SDS011;28058;46.344;17.786;2023-08-21T21:16:19;14.40;;;12.98;;
42414;SDS011;28058;46.344;17.786;2023-08-21T21:18:46;14.13;;;12.73;;
42414;SDS011;28058;46.344;17.786;2023-08-21T21:21:13;14.57;;;13.07;;
42414;SDS011;28058;46.344;17.786;2023-08-21T21:23:40;18.17;;;16.27;;
42414;SDS011;28058;46.344;17.786;2023-08-21T21:26:07;17.02;;;14.23;;
42414;SDS011;28058;46.344;17.786;2023-08-21T21:28:34;21.73;;;15.60;;
42414;SDS011;28058;46.344;17.786;2023-08-21T21:31:01;15.75;;;13.80;;
42414;SDS011;28058;46.344;17.786;2023-08-21T21:33:28;16.20;;;14.50;;
42414;SDS011;28058;46.344;17.786;2023-08-21T21:35:56;19.90;;;15.05;;
42414;SDS011;28058;46.344;17.786;2023-08-21T21:38:23;17.35;;;13.60;;
42414;SDS011;28058;46.344;17.786;2023-08-21T21:40:57;17.73;;;13.48;;
42414;SDS011;28058;46.344;17.786;2023-08-21T21:43:24;13.55;;;12.20;;
42414;SDS011;28058;46.344;17.786;2023-08-21T21:45:55;16.10;;;14.30;;
42414;SDS011;28058;46.344;17.786;2023-08-21T21:48:24;16.83;;;15.02;;
42414;SDS011;28058;46.344;17.786;2023-08-21T21:50:53;15.18;;;13.57;;
42414;SDS011;28058;46.344;17.786;2023-08-21T21:53:23;22.55;;;14.38;;
42414;SDS011;28058;46.344;17.786;2023-08-21T21:55:52;15.18;;;12.90;;
42414;SDS011;28058;46.344;17.786;2023-08-21T21:58:19;19.25;;;14.77;;
42414;SDS011;28058;46.344;17.786;2023-08-21T22:00:47;16.98;;;15.18;;
42414;SDS011;28058;46.344;17.786;2023-08-21T22:03:14;19.00;;;16.60;;
42414;SDS011;28058;46.344;17.786;2023-08-21T22:05:41;18.00;;;15.57;;
42414;SDS011;28058;46.344;17.786;2023-08-21T22:08:08;18.90;;;15.93;;
42414;SDS011;28058;46.344;17.786;2023-08-21T22:10:35;19.17;;;15.18;;
42414;SDS011;28058;46.344;17.786;2023-08-21T22:13:03;17.42;;;15.40;;
42414;SDS011;28058;46.344;17.786;2023-08-21T22:15:31;17.67;;;14.80;;
42414;SDS011;28058;46.344;17.786;2023-08-21T22:17:59;15.00;;;13.10;;
42414;SDS011;28058;46.344;17.786;2023-08-21T22:20:26;13.75;;;12.35;;
42414;SDS011;28058;46.344;17.786;2023-08-21T22:22:54;13.77;;;12.27;;
42414;SDS011;28058;46.344;17.786;2023-08-21T22:25:21;14.32;;;12.68;;
42414;SDS011;28058;46.344;17.786;2023-08-21T22:27:49;12.82;;;11.52;;
42414;SDS011;28058;46.344;17.786;2023-08-21T22:30:16;16.02;;;13.13;;
42414;SDS011;28058;46.344;17.786;2023-08-21T22:32:43;13.80;;;12.40;;
42414;SDS011;28058;46.344;17.786;2023-08-21T22:35:10;13.40;;;12.10;;
42414;SDS011;28058;46.344;17.786;2023-08-21T22:37:37;15.40;;;12.45;;
42414;SDS011;28058;46.344;17.786;2023-08-21T22:40:05;15.23;;;13.52;;
42414;SDS011;28058;46.344;17.786;2023-08-21T22:42:32;12.57;;;11.27;;
42414;SDS011;28058;46.344;17.786;2023-08-21T22:45:00;15.23;;;13.32;;
42414;SDS011;28058;46.344;17.786;2023-08-21T22:47:27;15.35;;;12.98;;
42414;SDS011;28058;46.344;17.786;2023-08-21T22:49:54;19.80;;;12.82;;
42414;SDS011;28058;46.344;17.786;2023-08-21T22:52:26;14.25;;;12.45;;
